sensor_id;sensor_type;location;lat;lon;timestamp;pressure;altitude;pressure_sealevel;temperature;humidity
72585;BME280;60618;40.084;32.908;2023-07-29T00:01:55;89406.19;;;16.79;62.83
72585;BME280;60618;40.084;32.908;2023-07-29T00:04:22;89413.09;;;16.74;63.38
72585;BME280;60618;40.084;32.908;2023-07-29T00:06:49;89403.41;;;16.65;63.98
72585;BME280;60618;40.084;32.908;2023-07-29T00:09:16;89397.84;;;16.63;64.46
72585;BME280;60618;40.084;32.908;2023-07-29T00:11:43;89406.19;;;16.60;64.81
72585;BME280;60618;40.084;32.908;2023-07-29T00:14:10;89412.06;;;16.58;65.15
72585;BME280;60618;40.084;32.908;2023-07-29T00:16:37;89394.81;;;16.54;65.90
72585;BME280;60618;40.084;32.908;2023-07-29T00:19:06;89414.41;;;16.49;66.44
72585;BME280;60618;40.084;32.908;2023-07-29T00:21:33;89388.75;;;16.48;66.71
72585;BME280;60618;40.084;32.908;2023-07-29T00:24:00;89399.53;;;16.48;66.93
72585;BME280;60618;40.084;32.908;2023-07-29T00:26:28;89400.81;;;16.41;67.35
72585;BME280;60618;40.084;32.908;2023-07-29T00:28:56;89394.00;;;16.40;68.06
72585;BME280;60618;40.084;32.908;2023-07-29T00:31:23;89398.22;;;16.35;68.45
72585;BME280;60618;40.084;32.908;2023-07-29T00:33:50;89384.69;;;16.41;68.15
72585;BME280;60618;40.084;32.908;2023-07-29T00:36:26;89391.53;;;16.42;68.17
72585;BME280;60618;40.084;32.908;2023-07-29T00:38:54;89399.78;;;16.44;68.35
72585;BME280;60618;40.084;32.908;2023-07-29T00:41:21;89384.91;;;16.43;68.43
72585;BME280;60618;40.084;32.908;2023-07-29T00:43:48;89389.66;;;16.37;68.78
72585;BME280;60618;40.084;32.908;2023-07-29T00:46:16;89375.34;;;16.29;69.00
72585;BME280;60618;40.084;32.908;2023-07-29T00:48:44;89381.81;;;16.20;69.61
72585;BME280;60618;40.084;32.908;2023-07-29T00:51:11;89394.31;;;16.17;69.94
72585;BME280;60618;40.084;32.908;2023-07-29T00:53:38;89384.56;;;16.14;69.91
72585;BME280;60618;40.084;32.908;2023-07-29T00:56:06;89365.75;;;16.14;70.01
72585;BME280;60618;40.084;32.908;2023-07-29T00:58:34;89365.53;;;16.12;69.96
72585;BME280;60618;40.084;32.908;2023-07-29T01:01:01;89385.06;;;16.13;69.69
72585;BME280;60618;40.084;32.908;2023-07-29T01:03:29;89382.38;;;16.13;69.83
72585;BME280;60618;40.084;32.908;2023-07-29T01:09:04;89373.75;;;16.01;70.53
72585;BME280;60618;40.084;32.908;2023-07-29T01:11:41;89379.56;;;16.05;70.38
72585;BME280;60618;40.084;32.908;2023-07-29T01:16:49;89376.44;;;16.01;70.36
72585;BME280;60618;40.084;32.908;2023-07-29T01:22:11;89397.69;;;15.99;70.26
72585;BME280;60618;40.084;32.908;2023-07-29T01:24:40;89395.25;;;16.01;70.61
72585;BME280;60618;40.084;32.908;2023-07-29T01:27:07;89381.81;;;16.01;70.63
72585;BME280;60618;40.084;32.908;2023-07-29T01:29:34;89400.53;;;16.07;70.19
72585;BME280;60618;40.084;32.908;2023-07-29T01:32:13;89397.22;;;16.01;70.05
72585;BME280;60618;40.084;32.908;2023-07-29T01:34:48;89391.84;;;16.01;70.27
72585;BME280;60618;40.084;32.908;2023-07-29T01:37:24;89400.09;;;16.03;70.20
72585;BME280;60618;40.084;32.908;2023-07-29T01:39:55;89409.41;;;16.02;70.14
72585;BME280;60618;40.084;32.908;2023-07-29T01:42:24;89405.09;;;15.93;70.53
72585;BME280;60618;40.084;32.908;2023-07-29T01:44:55;89413.38;;;15.95;70.80
72585;BME280;60618;40.084;32.908;2023-07-29T01:47:22;89401.81;;;15.81;70.87
72585;BME280;60618;40.084;32.908;2023-07-29T01:49:49;89402.69;;;15.89;71.01
72585;BME280;60618;40.084;32.908;2023-07-29T01:52:16;89411.81;;;15.81;71.42
72585;BME280;60618;40.084;32.908;2023-07-29T01:54:43;89406.47;;;15.81;71.44
72585;BME280;60618;40.084;32.908;2023-07-29T01:57:10;89409.94;;;15.76;71.45
72585;BME280;60618;40.084;32.908;2023-07-29T01:59:37;89416.75;;;15.77;71.71
72585;BME280;60618;40.084;32.908;2023-07-29T02:02:04;89400.94;;;15.73;71.79
72585;BME280;60618;40.084;32.908;2023-07-29T02:04:31;89408.53;;;15.69;72.29
72585;BME280;60618;40.084;32.908;2023-07-29T02:06:59;89410.59;;;15.57;72.75
72585;BME280;60618;40.084;32.908;2023-07-29T02:09:26;89416.97;;;15.54;72.96
72585;BME280;60618;40.084;32.908;2023-07-29T02:11:53;89408.19;;;15.54;73.25
72585;BME280;60618;40.084;32.908;2023-07-29T02:14:20;89412.81;;;15.53;72.94
72585;BME280;60618;40.084;32.908;2023-07-29T02:16:47;89404.78;;;15.53;73.00
72585;BME280;60618;40.084;32.908;2023-07-29T02:19:14;89414.63;;;15.45;73.86
72585;BME280;60618;40.084;32.908;2023-07-29T02:21:41;89409.25;;;15.45;73.79
72585;BME280;60618;40.084;32.908;2023-07-29T02:24:08;89406.56;;;15.45;73.74
72585;BME280;60618;40.084;32.908;2023-07-29T02:26:36;89403.44;;;15.41;74.15
72585;BME280;60618;40.084;32.908;2023-07-29T02:29:04;89417.41;;;15.34;74.38
72585;BME280;60618;40.084;32.908;2023-07-29T02:31:31;89418.22;;;15.29;75.14
72585;BME280;60618;40.084;32.908;2023-07-29T02:33:59;89412.13;;;15.28;74.95
72585;BME280;60618;40.084;32.908;2023-07-29T02:36:26;89414.84;;;15.23;75.15
72585;BME280;60618;40.084;32.908;2023-07-29T02:38:53;89422.44;;;15.19;75.53
72585;BME280;60618;40.084;32.908;2023-07-29T02:41:21;89413.44;;;15.16;75.80
72585;BME280;60618;40.084;32.908;2023-07-29T02:43:49;89413.94;;;15.15;75.85
72585;BME280;60618;40.084;32.908;2023-07-29T02:46:16;89412.09;;;15.04;76.02
72585;BME280;60618;40.084;32.908;2023-07-29T02:48:44;89409.63;;;15.06;76.39
72585;BME280;60618;40.084;32.908;2023-07-29T02:51:11;89424.22;;;15.11;76.13
72585;BME280;60618;40.084;32.908;2023-07-29T02:53:38;89423.25;;;15.08;76.38
72585;BME280;60618;40.084;32.908;2023-07-29T02:56:06;89427.69;;;15.05;76.27
72585;BME280;60618;40.084;32.908;2023-07-29T02:58:33;89421.59;;;15.05;76.52
72585;BME280;60618;40.084;32.908;2023-07-29T03:01:01;89428.13;;;15.10;76.87
72585;BME280;60618;40.084;32.908;2023-07-29T03:03:29;89417.56;;;15.17;75.85
72585;BME280;60618;40.084;32.908;2023-07-29T03:06:21;89409.34;;;15.10;76.83
72585;BME280;60618;40.084;32.908;2023-07-29T03:08:50;89427.38;;;15.09;76.42
72585;BME280;60618;40.084;32.908;2023-07-29T03:11:17;89419.31;;;15.15;76.07
72585;BME280;60618;40.084;32.908;2023-07-29T03:13:44;89431.72;;;15.18;76.52
72585;BME280;60618;40.084;32.908;2023-07-29T03:16:14;89417.31;;;15.21;75.91
72585;BME280;60618;40.084;32.908;2023-07-29T03:18:43;89424.13;;;15.22;76.17
72585;BME280;60618;40.084;32.908;2023-07-29T03:21:11;89420.72;;;15.21;75.88
72585;BME280;60618;40.084;32.908;2023-07-29T03:23:39;89437.94;;;15.31;75.27
72585;BME280;60618;40.084;32.908;2023-07-29T03:26:06;89424.19;;;15.41;75.27
72585;BME280;60618;40.084;32.908;2023-07-29T03:28:33;89412.72;;;15.40;75.63
72585;BME280;60618;40.084;32.908;2023-07-29T03:31:01;89400.75;;;15.41;75.38
72585;BME280;60618;40.084;32.908;2023-07-29T03:33:28;89411.72;;;15.43;75.03
72585;BME280;60618;40.084;32.908;2023-07-29T03:35:55;89415.59;;;15.48;74.66
72585;BME280;60618;40.084;32.908;2023-07-29T03:38:23;89414.06;;;15.52;74.99
72585;BME280;60618;40.084;32.908;2023-07-29T03:40:50;89419.13;;;15.61;74.57
72585;BME280;60618;40.084;32.908;2023-07-29T03:43:17;89418.16;;;15.59;74.61
72585;BME280;60618;40.084;32.908;2023-07-29T03:45:45;89424.75;;;15.58;74.60
72585;BME280;60618;40.084;32.908;2023-07-29T03:48:12;89429.84;;;15.61;74.54
72585;BME280;60618;40.084;32.908;2023-07-29T03:50:39;89429.09;;;15.67;74.47
72585;BME280;60618;40.084;32.908;2023-07-29T03:53:06;89415.88;;;15.69;74.44
72585;BME280;60618;40.084;32.908;2023-07-29T03:55:33;89415.16;;;15.68;74.42
72585;BME280;60618;40.084;32.908;2023-07-29T03:58:00;89422.84;;;15.77;74.28
72585;BME280;60618;40.084;32.908;2023-07-29T04:00:27;89434.94;;;15.89;73.59
72585;BME280;60618;40.084;32.908;2023-07-29T04:02:55;89433.38;;;16.00;73.57
72585;BME280;60618;40.084;32.908;2023-07-29T04:05:22;89432.72;;;16.12;73.08
72585;BME280;60618;40.084;32.908;2023-07-29T04:07:50;89437.06;;;16.15;72.91
72585;BME280;60618;40.084;32.908;2023-07-29T04:10:17;89437.38;;;16.31;71.86
72585;BME280;60618;40.084;32.908;2023-07-29T04:12:45;89431.84;;;16.42;71.78
72585;BME280;60618;40.084;32.908;2023-07-29T04:15:12;89421.53;;;16.46;71.43
72585;BME280;60618;40.084;32.908;2023-07-29T04:17:39;89434.09;;;16.57;71.19
72585;BME280;60618;40.084;32.908;2023-07-29T04:20:07;89434.44;;;16.66;70.51
72585;BME280;60618;40.084;32.908;2023-07-29T04:22:34;89429.31;;;16.68;70.32
72585;BME280;60618;40.084;32.908;2023-07-29T04:25:01;89436.28;;;16.77;70.44
72585;BME280;60618;40.084;32.908;2023-07-29T04:27:34;89433.69;;;16.71;70.43
72585;BME280;60618;40.084;32.908;2023-07-29T04:30:03;89428.06;;;16.69;70.68
72585;BME280;60618;40.084;32.908;2023-07-29T04:32:30;89432.41;;;16.91;70.39
72585;BME280;60618;40.084;32.908;2023-07-29T04:34:57;89442.44;;;16.91;69.86
72585;BME280;60618;40.084;32.908;2023-07-29T04:37:25;89427.78;;;17.05;69.42
72585;BME280;60618;40.084;32.908;2023-07-29T04:39:52;89432.03;;;17.00;69.15
72585;BME280;60618;40.084;32.908;2023-07-29T04:42:19;89437.97;;;17.12;68.86
72585;BME280;60618;40.084;32.908;2023-07-29T04:44:47;89438.72;;;17.26;68.51
72585;BME280;60618;40.084;32.908;2023-07-29T04:47:14;89448.88;;;17.33;67.94
72585;BME280;60618;40.084;32.908;2023-07-29T04:49:41;89440.34;;;17.16;68.83
72585;BME280;60618;40.084;32.908;2023-07-29T04:52:08;89434.91;;;17.35;68.22
72585;BME280;60618;40.084;32.908;2023-07-29T04:54:35;89437.50;;;17.27;67.83
72585;BME280;60618;40.084;32.908;2023-07-29T04:57:03;89440.19;;;17.40;68.25
72585;BME280;60618;40.084;32.908;2023-07-29T04:59:32;89442.19;;;17.53;67.33
72585;BME280;60618;40.084;32.908;2023-07-29T05:01:59;89440.84;;;17.59;67.27
72585;BME280;60618;40.084;32.908;2023-07-29T05:04:26;89440.22;;;17.67;66.93
72585;BME280;60618;40.084;32.908;2023-07-29T05:06:53;89438.06;;;17.65;66.77
72585;BME280;60618;40.084;32.908;2023-07-29T05:09:20;89445.75;;;17.74;66.47
72585;BME280;60618;40.084;32.908;2023-07-29T05:11:47;89442.44;;;17.95;65.60
72585;BME280;60618;40.084;32.908;2023-07-29T05:14:15;89445.84;;;18.22;65.10
72585;BME280;60618;40.084;32.908;2023-07-29T05:16:43;89445.13;;;18.34;64.76
72585;BME280;60618;40.084;32.908;2023-07-29T05:19:10;89445.41;;;18.44;64.01
72585;BME280;60618;40.084;32.908;2023-07-29T05:21:39;89446.66;;;18.43;63.84
72585;BME280;60618;40.084;32.908;2023-07-29T05:24:06;89448.41;;;18.54;63.79
72585;BME280;60618;40.084;32.908;2023-07-29T05:26:34;89446.88;;;18.45;62.99
72585;BME280;60618;40.084;32.908;2023-07-29T05:29:01;89454.22;;;18.44;62.69
72585;BME280;60618;40.084;32.908;2023-07-29T05:31:29;89448.41;;;18.40;63.28
72585;BME280;60618;40.084;32.908;2023-07-29T05:33:56;89451.09;;;18.54;62.44
72585;BME280;60618;40.084;32.908;2023-07-29T05:36:24;89452.44;;;18.74;61.30
72585;BME280;60618;40.084;32.908;2023-07-29T05:38:52;89449.81;;;18.81;61.23
72585;BME280;60618;40.084;32.908;2023-07-29T05:41:19;89447.59;;;19.14;60.26
72585;BME280;60618;40.084;32.908;2023-07-29T05:43:47;89449.59;;;19.55;58.11
72585;BME280;60618;40.084;32.908;2023-07-29T05:46:17;89448.41;;;19.64;58.16
72585;BME280;60618;40.084;32.908;2023-07-29T05:48:44;89448.44;;;19.92;57.14
72585;BME280;60618;40.084;32.908;2023-07-29T05:51:11;89452.56;;;19.65;57.39
72585;BME280;60618;40.084;32.908;2023-07-29T05:53:41;89437.06;;;19.44;58.15
72585;BME280;60618;40.084;32.908;2023-07-29T05:56:08;89446.38;;;20.06;57.09
72585;BME280;60618;40.084;32.908;2023-07-29T05:58:36;89447.13;;;20.14;56.54
72585;BME280;60618;40.084;32.908;2023-07-29T06:01:03;89449.69;;;20.20;55.54
72585;BME280;60618;40.084;32.908;2023-07-29T06:03:33;89445.78;;;20.36;55.89
72585;BME280;60618;40.084;32.908;2023-07-29T06:06:00;89445.69;;;21.01;54.12
72585;BME280;60618;40.084;32.908;2023-07-29T06:08:27;89449.84;;;21.02;53.16
72585;BME280;60618;40.084;32.908;2023-07-29T06:10:55;89449.00;;;21.14;53.53
72585;BME280;60618;40.084;32.908;2023-07-29T06:13:23;89435.34;;;21.66;52.19
72585;BME280;60618;40.084;32.908;2023-07-29T06:15:50;89450.69;;;21.48;52.03
72585;BME280;60618;40.084;32.908;2023-07-29T06:18:17;89442.38;;;21.31;51.89
72585;BME280;60618;40.084;32.908;2023-07-29T06:20:47;89441.47;;;21.36;52.47
72585;BME280;60618;40.084;32.908;2023-07-29T06:23:16;89441.28;;;21.41;52.47
72585;BME280;60618;40.084;32.908;2023-07-29T06:25:43;89440.13;;;21.06;53.67
72585;BME280;60618;40.084;32.908;2023-07-29T06:28:11;89439.59;;;21.15;53.47
72585;BME280;60618;40.084;32.908;2023-07-29T06:30:40;89432.97;;;21.62;52.50
72585;BME280;60618;40.084;32.908;2023-07-29T06:33:07;89425.41;;;21.76;51.27
72585;BME280;60618;40.084;32.908;2023-07-29T06:35:35;89421.41;;;21.69;51.10
72585;BME280;60618;40.084;32.908;2023-07-29T06:38:02;89434.44;;;21.94;50.93
72585;BME280;60618;40.084;32.908;2023-07-29T06:40:30;89431.72;;;21.86;51.44
72585;BME280;60618;40.084;32.908;2023-07-29T06:42:57;89439.31;;;21.72;50.75
72585;BME280;60618;40.084;32.908;2023-07-29T06:45:24;89427.75;;;21.79;50.79
72585;BME280;60618;40.084;32.908;2023-07-29T06:47:54;89431.88;;;21.73;50.54
72585;BME280;60618;40.084;32.908;2023-07-29T06:50:21;89428.28;;;21.70;51.14
72585;BME280;60618;40.084;32.908;2023-07-29T06:52:50;89428.84;;;21.76;50.96
72585;BME280;60618;40.084;32.908;2023-07-29T06:55:17;89437.84;;;22.02;49.65
72585;BME280;60618;40.084;32.908;2023-07-29T06:57:47;89422.13;;;21.93;49.83
72585;BME280;60618;40.084;32.908;2023-07-29T07:00:14;89430.28;;;21.77;50.28
72585;BME280;60618;40.084;32.908;2023-07-29T07:02:42;89426.63;;;21.98;49.96
72585;BME280;60618;40.084;32.908;2023-07-29T07:05:10;89422.47;;;22.04;49.53
72585;BME280;60618;40.084;32.908;2023-07-29T07:07:40;89425.19;;;21.81;49.77
72585;BME280;60618;40.084;32.908;2023-07-29T07:10:08;89424.28;;;22.17;48.70
72585;BME280;60618;40.084;32.908;2023-07-29T07:12:35;89418.59;;;22.46;49.08
72585;BME280;60618;40.084;32.908;2023-07-29T07:15:03;89426.56;;;22.36;48.27
72585;BME280;60618;40.084;32.908;2023-07-29T07:17:30;89412.50;;;22.30;47.66
72585;BME280;60618;40.084;32.908;2023-07-29T07:19:58;89421.22;;;22.13;48.27
72585;BME280;60618;40.084;32.908;2023-07-29T07:22:26;89426.44;;;22.19;47.78
72585;BME280;60618;40.084;32.908;2023-07-29T07:24:53;89409.22;;;22.39;47.62
72585;BME280;60618;40.084;32.908;2023-07-29T07:27:21;89405.53;;;22.59;47.24
72585;BME280;60618;40.084;32.908;2023-07-29T07:29:48;89417.66;;;22.99;46.55
72585;BME280;60618;40.084;32.908;2023-07-29T07:32:15;89419.09;;;23.00;45.68
72585;BME280;60618;40.084;32.908;2023-07-29T07:34:43;89415.28;;;23.35;44.20
72585;BME280;60618;40.084;32.908;2023-07-29T07:37:10;89415.38;;;23.77;43.90
72585;BME280;60618;40.084;32.908;2023-07-29T07:39:37;89418.81;;;23.78;44.10
72585;BME280;60618;40.084;32.908;2023-07-29T07:42:05;89411.44;;;23.71;43.14
72585;BME280;60618;40.084;32.908;2023-07-29T07:44:32;89416.69;;;23.69;44.00
72585;BME280;60618;40.084;32.908;2023-07-29T07:46:59;89417.31;;;23.60;45.29
72585;BME280;60618;40.084;32.908;2023-07-29T07:49:30;89414.63;;;23.52;43.31
72585;BME280;60618;40.084;32.908;2023-07-29T07:52:01;89403.97;;;23.96;43.05
72585;BME280;60618;40.084;32.908;2023-07-29T07:54:28;89406.44;;;23.85;42.11
72585;BME280;60618;40.084;32.908;2023-07-29T07:56:59;89401.66;;;23.93;43.58
72585;BME280;60618;40.084;32.908;2023-07-29T07:59:26;89393.25;;;24.16;42.19
72585;BME280;60618;40.084;32.908;2023-07-29T08:01:54;89386.22;;;24.30;41.02
72585;BME280;60618;40.084;32.908;2023-07-29T08:04:21;89391.69;;;24.65;41.45
72585;BME280;60618;40.084;32.908;2023-07-29T08:06:48;89406.75;;;24.48;41.43
72585;BME280;60618;40.084;32.908;2023-07-29T08:09:15;89386.53;;;23.99;41.70
72585;BME280;60618;40.084;32.908;2023-07-29T08:11:42;89387.97;;;24.00;41.79
72585;BME280;60618;40.084;32.908;2023-07-29T08:14:10;89390.06;;;24.27;42.04
72585;BME280;60618;40.084;32.908;2023-07-29T08:16:38;89392.06;;;24.61;41.30
72585;BME280;60618;40.084;32.908;2023-07-29T08:19:05;89381.31;;;24.80;40.04
72585;BME280;60618;40.084;32.908;2023-07-29T08:21:32;89386.16;;;25.16;39.47
72585;BME280;60618;40.084;32.908;2023-07-29T08:24:00;89381.97;;;25.15;38.59
72585;BME280;60618;40.084;32.908;2023-07-29T08:26:27;89385.09;;;24.68;38.99
72585;BME280;60618;40.084;32.908;2023-07-29T08:28:55;89376.00;;;25.00;38.89
72585;BME280;60618;40.084;32.908;2023-07-29T08:31:22;89373.25;;;25.00;37.59
72585;BME280;60618;40.084;32.908;2023-07-29T08:33:49;89365.19;;;24.92;38.28
72585;BME280;60618;40.084;32.908;2023-07-29T08:36:17;89355.16;;;25.22;39.25
72585;BME280;60618;40.084;32.908;2023-07-29T08:38:44;89365.81;;;25.27;38.26
72585;BME280;60618;40.084;32.908;2023-07-29T08:41:16;89352.03;;;25.25;38.21
72585;BME280;60618;40.084;32.908;2023-07-29T08:43:52;89351.75;;;24.77;38.70
72585;BME280;60618;40.084;32.908;2023-07-29T08:46:23;89357.63;;;24.73;38.57
72585;BME280;60618;40.084;32.908;2023-07-29T08:48:51;89351.72;;;24.94;38.28
72585;BME280;60618;40.084;32.908;2023-07-29T08:51:19;89347.00;;;25.22;38.95
72585;BME280;60618;40.084;32.908;2023-07-29T08:53:48;89355.41;;;25.43;37.90
72585;BME280;60618;40.084;32.908;2023-07-29T08:56:16;89335.56;;;25.79;36.90
72585;BME280;60618;40.084;32.908;2023-07-29T08:58:43;89342.38;;;25.97;35.64
72585;BME280;60618;40.084;32.908;2023-07-29T09:01:11;89342.38;;;26.07;35.09
72585;BME280;60618;40.084;32.908;2023-07-29T09:03:38;89329.56;;;25.81;35.52
72585;BME280;60618;40.084;32.908;2023-07-29T09:06:07;89341.63;;;25.41;36.11
72585;BME280;60618;40.084;32.908;2023-07-29T09:08:35;89330.03;;;25.13;36.27
72585;BME280;60618;40.084;32.908;2023-07-29T09:11:02;89330.81;;;25.33;35.63
72585;BME280;60618;40.084;32.908;2023-07-29T09:13:31;89335.28;;;25.75;34.81
72585;BME280;60618;40.084;32.908;2023-07-29T09:15:59;89333.03;;;26.10;34.30
72585;BME280;60618;40.084;32.908;2023-07-29T09:18:27;89323.56;;;26.79;33.71
72585;BME280;60618;40.084;32.908;2023-07-29T09:20:59;89316.75;;;27.09;32.05
72585;BME280;60618;40.084;32.908;2023-07-29T09:23:26;89317.75;;;26.94;31.98
72585;BME280;60618;40.084;32.908;2023-07-29T09:26:03;89312.22;;;26.63;32.20
72585;BME280;60618;40.084;32.908;2023-07-29T09:28:35;89314.66;;;26.30;30.92
72585;BME280;60618;40.084;32.908;2023-07-29T09:31:06;89317.09;;;26.16;31.79
72585;BME280;60618;40.084;32.908;2023-07-29T09:33:35;89316.94;;;26.04;32.01
72585;BME280;60618;40.084;32.908;2023-07-29T09:36:08;89309.78;;;26.09;31.32
72585;BME280;60618;40.084;32.908;2023-07-29T09:38:37;89310.03;;;26.32;31.48
72585;BME280;60618;40.084;32.908;2023-07-29T09:41:04;89304.13;;;26.84;30.77
72585;BME280;60618;40.084;32.908;2023-07-29T09:43:32;89306.41;;;26.98;29.37
72585;BME280;60618;40.084;32.908;2023-07-29T09:46:05;89302.25;;;27.37;28.53
72585;BME280;60618;40.084;32.908;2023-07-29T09:48:36;89307.59;;;27.66;29.25
72585;BME280;60618;40.084;32.908;2023-07-29T09:51:11;89299.16;;;27.12;29.59
72585;BME280;60618;40.084;32.908;2023-07-29T09:53:50;89290.22;;;27.21;29.10
72585;BME280;60618;40.084;32.908;2023-07-29T09:56:25;89291.28;;;27.99;30.58
72585;BME280;60618;40.084;32.908;2023-07-29T09:58:55;89283.75;;;28.76;28.68
72585;BME280;60618;40.084;32.908;2023-07-29T10:01:25;89281.94;;;29.25;27.63
72585;BME280;60618;40.084;32.908;2023-07-29T10:03:53;89283.31;;;28.91;26.92
72585;BME280;60618;40.084;32.908;2023-07-29T10:06:21;89286.19;;;28.06;29.05
72585;BME280;60618;40.084;32.908;2023-07-29T10:08:50;89292.03;;;27.69;29.17
72585;BME280;60618;40.084;32.908;2023-07-29T10:11:21;89283.31;;;27.82;27.17
72585;BME280;60618;40.084;32.908;2023-07-29T10:13:49;89279.19;;;27.40;25.98
72585;BME280;60618;40.084;32.908;2023-07-29T10:16:36;89274.31;;;27.91;24.85
72585;BME280;60618;40.084;32.908;2023-07-29T10:19:04;89269.56;;;27.92;26.24
72585;BME280;60618;40.084;32.908;2023-07-29T10:21:32;89269.47;;;27.28;27.82
72585;BME280;60618;40.084;32.908;2023-07-29T10:24:02;89267.13;;;26.93;28.05
72585;BME280;60618;40.084;32.908;2023-07-29T10:26:31;89263.16;;;27.25;28.45
72585;BME280;60618;40.084;32.908;2023-07-29T10:29:04;89276.69;;;27.23;26.16
72585;BME280;60618;40.084;32.908;2023-07-29T10:31:32;89269.41;;;27.37;26.28
72585;BME280;60618;40.084;32.908;2023-07-29T10:33:59;89259.38;;;27.30;24.35
72585;BME280;60618;40.084;32.908;2023-07-29T10:36:28;89260.88;;;27.74;21.63
72585;BME280;60618;40.084;32.908;2023-07-29T10:38:55;89258.63;;;27.70;21.65
72585;BME280;60618;40.084;32.908;2023-07-29T10:41:22;89259.31;;;27.92;20.05
72585;BME280;60618;40.084;32.908;2023-07-29T10:43:49;89259.88;;;28.12;19.77
72585;BME280;60618;40.084;32.908;2023-07-29T10:46:21;89263.28;;;28.01;20.31
72585;BME280;60618;40.084;32.908;2023-07-29T10:51:30;89244.28;;;27.82;21.26
72585;BME280;60618;40.084;32.908;2023-07-29T10:54:09;89241.22;;;27.56;21.93
72585;BME280;60618;40.084;32.908;2023-07-29T10:56:40;89240.69;;;27.79;21.15
72585;BME280;60618;40.084;32.908;2023-07-29T11:01:41;89239.94;;;28.21;20.82
72585;BME280;60618;40.084;32.908;2023-07-29T11:07:27;89236.97;;;28.50;20.84
72585;BME280;60618;40.084;32.908;2023-07-29T11:10:00;89236.31;;;28.73;20.34
72585;BME280;60618;40.084;32.908;2023-07-29T11:20:09;89209.44;;;30.01;16.97
72585;BME280;60618;40.084;32.908;2023-07-29T11:22:37;89208.00;;;29.39;17.57
72585;BME280;60618;40.084;32.908;2023-07-29T11:25:08;89204.88;;;28.86;17.16
72585;BME280;60618;40.084;32.908;2023-07-29T11:27:35;89210.69;;;28.69;15.28
72585;BME280;60618;40.084;32.908;2023-07-29T11:30:08;89206.69;;;28.48;16.55
72585;BME280;60618;40.084;32.908;2023-07-29T11:32:36;89201.31;;;28.95;17.13
72585;BME280;60618;40.084;32.908;2023-07-29T11:35:12;89205.88;;;29.49;17.65
72585;BME280;60618;40.084;32.908;2023-07-29T11:37:43;89202.41;;;29.14;18.48
72585;BME280;60618;40.084;32.908;2023-07-29T11:40:15;89204.41;;;29.01;18.06
72585;BME280;60618;40.084;32.908;2023-07-29T11:42:46;89202.56;;;28.71;18.56
72585;BME280;60618;40.084;32.908;2023-07-29T11:45:14;89196.34;;;28.14;19.22
72585;BME280;60618;40.084;32.908;2023-07-29T11:47:44;89200.59;;;28.05;18.94
72585;BME280;60618;40.084;32.908;2023-07-29T11:50:14;89202.53;;;28.47;19.49
72585;BME280;60618;40.084;32.908;2023-07-29T11:52:43;89200.31;;;28.79;19.15
72585;BME280;60618;40.084;32.908;2023-07-29T11:55:12;89201.81;;;29.15;18.86
72585;BME280;60618;40.084;32.908;2023-07-29T11:57:42;89192.63;;;29.57;19.56
72585;BME280;60618;40.084;32.908;2023-07-29T12:00:10;89193.09;;;29.91;17.69
72585;BME280;60618;40.084;32.908;2023-07-29T12:02:39;89189.13;;;30.43;17.83
72585;BME280;60618;40.084;32.908;2023-07-29T12:05:09;89187.78;;;30.18;17.61
72585;BME280;60618;40.084;32.908;2023-07-29T12:07:42;89185.81;;;29.35;17.69
72585;BME280;60618;40.084;32.908;2023-07-29T12:10:10;89179.34;;;28.72;18.57
72585;BME280;60618;40.084;32.908;2023-07-29T12:12:44;89177.81;;;28.92;18.67
72585;BME280;60618;40.084;32.908;2023-07-29T12:15:12;89183.53;;;29.20;19.38
72585;BME280;60618;40.084;32.908;2023-07-29T12:17:40;89176.88;;;29.11;19.79
72585;BME280;60618;40.084;32.908;2023-07-29T12:20:10;89165.88;;;28.76;18.94
72585;BME280;60618;40.084;32.908;2023-07-29T12:22:37;89173.38;;;28.64;19.65
72585;BME280;60618;40.084;32.908;2023-07-29T12:25:05;89163.50;;;29.17;19.63
72585;BME280;60618;40.084;32.908;2023-07-29T12:27:32;89173.63;;;29.61;18.47
72585;BME280;60618;40.084;32.908;2023-07-29T12:30:01;89174.44;;;30.01;16.80
72585;BME280;60618;40.084;32.908;2023-07-29T12:32:29;89167.06;;;30.04;16.83
72585;BME280;60618;40.084;32.908;2023-07-29T12:34:56;89169.78;;;30.66;17.10
72585;BME280;60618;40.084;32.908;2023-07-29T12:37:32;89169.88;;;31.49;17.18
72585;BME280;60618;40.084;32.908;2023-07-29T12:39:59;89167.84;;;32.20;13.77
72585;BME280;60618;40.084;32.908;2023-07-29T12:42:27;89167.94;;;32.52;13.09
72585;BME280;60618;40.084;32.908;2023-07-29T12:44:54;89162.34;;;32.95;14.67
72585;BME280;60618;40.084;32.908;2023-07-29T12:47:21;89164.47;;;33.12;12.78
72585;BME280;60618;40.084;32.908;2023-07-29T12:49:49;89164.53;;;32.37;14.47
72585;BME280;60618;40.084;32.908;2023-07-29T12:52:16;89157.97;;;32.44;15.35
72585;BME280;60618;40.084;32.908;2023-07-29T12:54:43;89161.31;;;32.13;15.16
72585;BME280;60618;40.084;32.908;2023-07-29T12:57:11;89156.38;;;31.96;14.82
72585;BME280;60618;40.084;32.908;2023-07-29T12:59:38;89149.19;;;32.05;15.19
72585;BME280;60618;40.084;32.908;2023-07-29T13:02:05;89140.53;;;31.40;15.09
72585;BME280;60618;40.084;32.908;2023-07-29T13:04:33;89141.78;;;30.44;15.53
72585;BME280;60618;40.084;32.908;2023-07-29T13:07:00;89123.25;;;29.45;16.38
72585;BME280;60618;40.084;32.908;2023-07-29T13:09:28;89141.53;;;29.29;16.65
72585;BME280;60618;40.084;32.908;2023-07-29T13:11:55;89141.44;;;29.27;15.97
72585;BME280;60618;40.084;32.908;2023-07-29T13:14:22;89142.63;;;29.35;15.28
72585;BME280;60618;40.084;32.908;2023-07-29T13:16:49;89138.53;;;29.48;15.04
72585;BME280;60618;40.084;32.908;2023-07-29T13:19:18;89139.50;;;29.53;14.44
72585;BME280;60618;40.084;32.908;2023-07-29T13:21:45;89144.16;;;30.24;14.72